Terminal Aerodrome Forecast
Issued by NWS

Home | Current Version | Previous Version | Text Only | Print | Product List | Glossary On
Versions: 1 2 3 4 5 6 7 8 9 10 11 12 13 14
000
FTUS45 KRIW 180500
TAFWRL
TAF
KWRL 180535Z 1806/1906 VRB06KT P6SM SCT200
     FM181600 34015G20KT P6SM SCT080
     FM182000 35020G28KT P6SM VCSH SCT050 BKN080=

USA.gov is the U.S. government's official web portal to all federal, state and local government web resources and services.